netzathleten.de alexa rank chart, netzathleten.de alexa rank daily changes

netzathleten.de alexa rank chart, netzathleten.de alexa rank daily changes

netzathleten.de
Actual rank:
423 143

RANK HISTORY

Date Rank Diff
2018/02/22 423 143 +229 451
2018/02/21 193 692 +41 128
2018/02/20 152 564 -106 761
2018/02/19 259 325 -156 085
2018/02/18 415 410 +110 272
2018/02/17 305 138 -81 535
2018/02/16 386 673 -64 291
2018/02/15 450 964 +53 640
2018/02/14 397 324 +195 008
2018/02/13 202 316 -358 609
2018/02/12 560 925 -147 867
2018/02/11 708 792 -45 062
2018/02/10 753 854 +485 548
2018/02/08 268 306 -635 680
2018/02/07 903 986 +499 107
2018/02/06 404 879 -344 369
2018/02/05 749 248 +306 772
2018/02/04 442 476 +198 292
2018/02/03 244 184 -252 353
2018/02/02 496 537 -410 738
2018/02/01 907 275 -9 155
2018/01/31 916 430 +552 737
2018/01/30 363 693 +9 825
2018/01/29 353 868 -5 326
2018/01/28 359 194 +1 148
2018/01/27 358 046 -11 675
2018/01/26 369 721 -31 998
2018/01/25 401 719 -2 767
2018/01/24 404 486 -8 554
2018/01/23 413 040 -5 752
2018/01/22 418 792 -10 492
2018/01/21 429 284 +38
2018/01/20 429 246 -27 377
2018/01/19 456 623 -4 845
2018/01/18 461 468 -14 177
2018/01/17 475 645 -3 095
2018/01/16 478 740 -1 466
2018/01/15 480 206 -1 418
2018/01/14 481 624 -9 190
2018/01/13 490 814 -8 855
2018/01/12 499 669 -17 398
2018/01/11 517 067 -61 189
2018/01/10 578 256 +2 650
2018/01/09 575 606 +9 442
2018/01/08 566 164 +7 240
2018/01/07 558 924 -1 062
2018/01/06 559 986 +31 511
2018/01/05 528 475 -27 216
2018/01/04 555 691 +26 274
2018/01/03 529 417 +62 972
2018/01/02 466 445 +18 821
2018/01/01 447 624 +2 316
2017/12/31 445 308 +5 429
2017/12/30 439 879 -14 678
2017/12/29 454 557 +12 137
2017/12/28 442 420 +897
2017/12/27 441 523 -2 639
2017/12/26 444 162 +3 663
2017/12/25 440 499 +29 351
2017/12/24 411 148

WIDGET FOR YOUR SITE

DOMAINS WITH THE NEAREST RANK

Domain Rank
gatewaygrassroots.com 423 138
1cpublishing.eu 423 139
sahitya-akademi.gov.in 423 140
yem-news.com 423 141
favision.net 423 142
netzathleten.de 423 143
startxxl.com 423 144
nudist-camp.org 423 145
surestakes.com 423 146
cmj.hr 423 147
3dpics.pro 423 148

DOMAINS WITH THE NEAREST RANK BY TLD .de

Domain Rank
pflegetiger.de 422 336
corsa-d.de 422 480
deutsche-cricket-union.de 422 645
speedmeter.de 423 061
feiertage-newsletter.de 423 128
netzathleten.de 423 143
nethosting4you.de 423 255
promobricks.de 423 365
thuenen.de 423 371
elektro4000.de 423 760
stickandstyle.de 423 822